sensor_id;sensor_type;location;lat;lon;timestamp;P1;durP1;ratioP1;P2;durP2;ratioP2
20042;SDS011;10182;52.896;6.496;2023-04-06T00:02:27;11.40;;;7.70;;
20042;SDS011;10182;52.896;6.496;2023-04-06T00:07:28;13.60;;;9.60;;
20042;SDS011;10182;52.896;6.496;2023-04-06T00:12:30;16.77;;;10.37;;
20042;SDS011;10182;52.896;6.496;2023-04-06T00:17:34;13.20;;;10.07;;
20042;SDS011;10182;52.896;6.496;2023-04-06T00:22:35;10.80;;;8.73;;
20042;SDS011;10182;52.896;6.496;2023-04-06T00:27:38;9.83;;;7.80;;
20042;SDS011;10182;52.896;6.496;2023-04-06T00:32:41;7.47;;;6.33;;
20042;SDS011;10182;52.896;6.496;2023-04-06T00:37:43;7.30;;;5.90;;
20042;SDS011;10182;52.896;6.496;2023-04-06T00:42:47;6.83;;;5.73;;
20042;SDS011;10182;52.896;6.496;2023-04-06T00:47:50;9.17;;;6.23;;
20042;SDS011;10182;52.896;6.496;2023-04-06T00:52:52;7.80;;;6.10;;
20042;SDS011;10182;52.896;6.496;2023-04-06T00:57:55;8.83;;;6.27;;
20042;SDS011;10182;52.896;6.496;2023-04-06T01:03:01;7.43;;;6.23;;
20042;SDS011;10182;52.896;6.496;2023-04-06T01:08:03;10.43;;;6.30;;
20042;SDS011;10182;52.896;6.496;2023-04-06T01:13:05;7.57;;;6.10;;
20042;SDS011;10182;52.896;6.496;2023-04-06T01:18:09;7.43;;;6.47;;
20042;SDS011;10182;52.896;6.496;2023-04-06T01:23:13;7.77;;;6.80;;
20042;SDS011;10182;52.896;6.496;2023-04-06T01:28:14;9.93;;;6.33;;
20042;SDS011;10182;52.896;6.496;2023-04-06T01:33:16;10.57;;;7.33;;
20042;SDS011;10182;52.896;6.496;2023-04-06T01:38:19;11.60;;;8.10;;
20042;SDS011;10182;52.896;6.496;2023-04-06T01:43:21;9.47;;;7.67;;
20042;SDS011;10182;52.896;6.496;2023-04-06T01:48:23;11.60;;;7.70;;
20042;SDS011;10182;52.896;6.496;2023-04-06T01:53:26;7.97;;;6.80;;
20042;SDS011;10182;52.896;6.496;2023-04-06T01:58:28;6.87;;;6.03;;
20042;SDS011;10182;52.896;6.496;2023-04-06T02:03:30;9.00;;;6.50;;
20042;SDS011;10182;52.896;6.496;2023-04-06T02:08:33;6.77;;;6.07;;
20042;SDS011;10182;52.896;6.496;2023-04-06T02:13:35;7.87;;;6.50;;
20042;SDS011;10182;52.896;6.496;2023-04-06T02:18:36;9.83;;;6.47;;
20042;SDS011;10182;52.896;6.496;2023-04-06T02:23:39;6.67;;;5.93;;
20042;SDS011;10182;52.896;6.496;2023-04-06T02:28:41;6.73;;;6.03;;
20042;SDS011;10182;52.896;6.496;2023-04-06T02:33:43;8.00;;;6.83;;
20042;SDS011;10182;52.896;6.496;2023-04-06T02:38:46;7.27;;;6.37;;
20042;SDS011;10182;52.896;6.496;2023-04-06T02:43:48;7.83;;;6.77;;
20042;SDS011;10182;52.896;6.496;2023-04-06T02:48:50;10.13;;;6.37;;
20042;SDS011;10182;52.896;6.496;2023-04-06T02:53:53;8.97;;;7.00;;
20042;SDS011;10182;52.896;6.496;2023-04-06T02:58:54;8.77;;;6.70;;
20042;SDS011;10182;52.896;6.496;2023-04-06T03:03:56;7.50;;;6.80;;
20042;SDS011;10182;52.896;6.496;2023-04-06T03:08:59;8.87;;;6.93;;
20042;SDS011;10182;52.896;6.496;2023-04-06T03:14:01;7.30;;;6.60;;
20042;SDS011;10182;52.896;6.496;2023-04-06T03:19:03;8.60;;;6.80;;
20042;SDS011;10182;52.896;6.496;2023-04-06T03:24:07;7.00;;;6.27;;
20042;SDS011;10182;52.896;6.496;2023-04-06T03:29:09;11.90;;;8.10;;
20042;SDS011;10182;52.896;6.496;2023-04-06T03:34:10;14.83;;;8.00;;
20042;SDS011;10182;52.896;6.496;2023-04-06T03:39:13;9.23;;;8.10;;
20042;SDS011;10182;52.896;6.496;2023-04-06T03:44:15;10.00;;;7.93;;
20042;SDS011;10182;52.896;6.496;2023-04-06T03:49:17;8.70;;;7.77;;
20042;SDS011;10182;52.896;6.496;2023-04-06T03:54:21;12.50;;;7.67;;
20042;SDS011;10182;52.896;6.496;2023-04-06T03:59:23;13.10;;;11.13;;
20042;SDS011;10182;52.896;6.496;2023-04-06T04:04:24;11.57;;;9.07;;
20042;SDS011;10182;52.896;6.496;2023-04-06T04:09:27;12.10;;;9.60;;
20042;SDS011;10182;52.896;6.496;2023-04-06T04:14:29;10.30;;;9.20;;
20042;SDS011;10182;52.896;6.496;2023-04-06T04:19:31;9.53;;;8.53;;
20042;SDS011;10182;52.896;6.496;2023-04-06T04:24:34;10.43;;;9.33;;
20042;SDS011;10182;52.896;6.496;2023-04-06T04:29:36;11.97;;;10.57;;
20042;SDS011;10182;52.896;6.496;2023-04-06T04:34:38;15.53;;;13.20;;
20042;SDS011;10182;52.896;6.496;2023-04-06T04:39:42;14.47;;;11.63;;
20042;SDS011;10182;52.896;6.496;2023-04-06T04:44:44;12.37;;;9.43;;
20042;SDS011;10182;52.896;6.496;2023-04-06T04:49:45;11.10;;;9.23;;
20042;SDS011;10182;52.896;6.496;2023-04-06T04:54:49;9.93;;;8.40;;
20042;SDS011;10182;52.896;6.496;2023-04-06T04:59:51;10.40;;;8.00;;
20042;SDS011;10182;52.896;6.496;2023-04-06T05:04:52;12.53;;;9.13;;
20042;SDS011;10182;52.896;6.496;2023-04-06T05:09:55;9.93;;;8.37;;
20042;SDS011;10182;52.896;6.496;2023-04-06T05:14:57;10.60;;;9.30;;
20042;SDS011;10182;52.896;6.496;2023-04-06T05:19:59;12.43;;;8.80;;
20042;SDS011;10182;52.896;6.496;2023-04-06T05:25:03;10.07;;;8.97;;
20042;SDS011;10182;52.896;6.496;2023-04-06T05:30:05;12.73;;;9.70;;
20042;SDS011;10182;52.896;6.496;2023-04-06T05:35:08;10.47;;;9.27;;
20042;SDS011;10182;52.896;6.496;2023-04-06T05:40:12;12.33;;;9.67;;
20042;SDS011;10182;52.896;6.496;2023-04-06T05:45:14;10.93;;;9.73;;
20042;SDS011;10182;52.896;6.496;2023-04-06T05:50:16;11.40;;;10.13;;
20042;SDS011;10182;52.896;6.496;2023-04-06T05:55:20;14.07;;;10.83;;
20042;SDS011;10182;52.896;6.496;2023-04-06T06:00:22;13.20;;;10.40;;
20042;SDS011;10182;52.896;6.496;2023-04-06T06:05:24;16.57;;;10.80;;
20042;SDS011;10182;52.896;6.496;2023-04-06T06:10:27;11.17;;;9.73;;
20042;SDS011;10182;52.896;6.496;2023-04-06T06:15:29;12.23;;;9.20;;
20042;SDS011;10182;52.896;6.496;2023-04-06T06:20:31;11.73;;;9.67;;
20042;SDS011;10182;52.896;6.496;2023-04-06T06:25:34;13.13;;;10.93;;
20042;SDS011;10182;52.896;6.496;2023-04-06T06:30:36;15.23;;;10.27;;
20042;SDS011;10182;52.896;6.496;2023-04-06T06:35:37;13.73;;;9.77;;
20042;SDS011;10182;52.896;6.496;2023-04-06T06:40:41;11.50;;;9.70;;
20042;SDS011;10182;52.896;6.496;2023-04-06T06:45:43;13.87;;;10.63;;
20042;SDS011;10182;52.896;6.496;2023-04-06T06:50:46;11.57;;;10.37;;
20042;SDS011;10182;52.896;6.496;2023-04-06T06:55:50;11.10;;;9.97;;
20042;SDS011;10182;52.896;6.496;2023-04-06T07:00:55;12.97;;;10.73;;
20042;SDS011;10182;52.896;6.496;2023-04-06T07:05:57;11.27;;;9.90;;
20042;SDS011;10182;52.896;6.496;2023-04-06T07:11:00;12.23;;;10.27;;
20042;SDS011;10182;52.896;6.496;2023-04-06T07:16:02;16.83;;;10.97;;
20042;SDS011;10182;52.896;6.496;2023-04-06T07:21:04;13.60;;;11.20;;
20042;SDS011;10182;52.896;6.496;2023-04-06T07:26:07;11.17;;;9.93;;
20042;SDS011;10182;52.896;6.496;2023-04-06T07:31:09;13.30;;;10.73;;
20042;SDS011;10182;52.896;6.496;2023-04-06T07:36:10;14.67;;;11.13;;
20042;SDS011;10182;52.896;6.496;2023-04-06T07:41:13;15.80;;;11.37;;
20042;SDS011;10182;52.896;6.496;2023-04-06T07:46:15;13.73;;;10.33;;
20042;SDS011;10182;52.896;6.496;2023-04-06T07:51:18;13.50;;;10.27;;
20042;SDS011;10182;52.896;6.496;2023-04-06T07:56:21;12.93;;;10.13;;
20042;SDS011;10182;52.896;6.496;2023-04-06T08:01:23;12.53;;;11.23;;
20042;SDS011;10182;52.896;6.496;2023-04-06T08:06:25;17.23;;;12.00;;
20042;SDS011;10182;52.896;6.496;2023-04-06T08:11:28;12.77;;;10.30;;
20042;SDS011;10182;52.896;6.496;2023-04-06T08:16:30;14.70;;;11.03;;
20042;SDS011;10182;52.896;6.496;2023-04-06T08:21:31;13.03;;;10.93;;
20042;SDS011;10182;52.896;6.496;2023-04-06T08:26:35;13.77;;;10.87;;
20042;SDS011;10182;52.896;6.496;2023-04-06T08:31:37;12.43;;;11.17;;
20042;SDS011;10182;52.896;6.496;2023-04-06T08:36:39;12.93;;;10.50;;
20042;SDS011;10182;52.896;6.496;2023-04-06T08:41:42;14.97;;;11.57;;
20042;SDS011;10182;52.896;6.496;2023-04-06T08:46:44;14.60;;;11.70;;
20042;SDS011;10182;52.896;6.496;2023-04-06T08:51:46;13.57;;;11.37;;
20042;SDS011;10182;52.896;6.496;2023-04-06T08:56:50;13.83;;;11.40;;
20042;SDS011;10182;52.896;6.496;2023-04-06T09:01:53;12.93;;;11.33;;
20042;SDS011;10182;52.896;6.496;2023-04-06T09:06:56;15.27;;;11.13;;
20042;SDS011;10182;52.896;6.496;2023-04-06T09:11:59;14.07;;;12.43;;
20042;SDS011;10182;52.896;6.496;2023-04-06T09:17:05;15.47;;;12.67;;
20042;SDS011;10182;52.896;6.496;2023-04-06T09:22:07;19.60;;;12.63;;
20042;SDS011;10182;52.896;6.496;2023-04-06T09:27:11;21.27;;;13.40;;
20042;SDS011;10182;52.896;6.496;2023-04-06T09:32:13;18.80;;;13.17;;
20042;SDS011;10182;52.896;6.496;2023-04-06T09:37:17;17.20;;;14.10;;
20042;SDS011;10182;52.896;6.496;2023-04-06T09:42:25;18.37;;;13.23;;
20042;SDS011;10182;52.896;6.496;2023-04-06T09:47:27;16.53;;;13.63;;
20042;SDS011;10182;52.896;6.496;2023-04-06T09:52:31;16.67;;;14.13;;
20042;SDS011;10182;52.896;6.496;2023-04-06T09:57:37;16.93;;;14.33;;
20042;SDS011;10182;52.896;6.496;2023-04-06T10:02:45;19.87;;;14.17;;
20042;SDS011;10182;52.896;6.496;2023-04-06T10:07:53;20.13;;;14.67;;
20042;SDS011;10182;52.896;6.496;2023-04-06T10:12:58;21.87;;;16.03;;
20042;SDS011;10182;52.896;6.496;2023-04-06T10:18:01;21.37;;;15.77;;
20042;SDS011;10182;52.896;6.496;2023-04-06T10:23:05;21.33;;;16.97;;
20042;SDS011;10182;52.896;6.496;2023-04-06T10:28:15;20.47;;;17.80;;
20042;SDS011;10182;52.896;6.496;2023-04-06T10:33:20;26.90;;;17.70;;
20042;SDS011;10182;52.896;6.496;2023-04-06T10:38:32;25.20;;;19.40;;
20042;SDS011;10182;52.896;6.496;2023-04-06T10:43:37;27.50;;;18.20;;
20042;SDS011;10182;52.896;6.496;2023-04-06T10:48:40;27.20;;;19.07;;
20042;SDS011;10182;52.896;6.496;2023-04-06T10:53:43;27.23;;;20.20;;
20042;SDS011;10182;52.896;6.496;2023-04-06T10:58:48;24.73;;;18.57;;
20042;SDS011;10182;52.896;6.496;2023-04-06T11:03:52;26.67;;;20.33;;
20042;SDS011;10182;52.896;6.496;2023-04-06T11:08:56;34.60;;;21.17;;
20042;SDS011;10182;52.896;6.496;2023-04-06T11:14:00;33.83;;;22.37;;
20042;SDS011;10182;52.896;6.496;2023-04-06T11:19:03;37.40;;;20.80;;
20042;SDS011;10182;52.896;6.496;2023-04-06T11:24:10;28.03;;;21.93;;
20042;SDS011;10182;52.896;6.496;2023-04-06T11:29:14;28.53;;;20.37;;
20042;SDS011;10182;52.896;6.496;2023-04-06T11:34:18;28.07;;;21.47;;
20042;SDS011;10182;52.896;6.496;2023-04-06T11:39:22;28.33;;;22.27;;
20042;SDS011;10182;52.896;6.496;2023-04-06T11:44:33;26.97;;;21.73;;
20042;SDS011;10182;52.896;6.496;2023-04-06T11:49:37;28.20;;;22.53;;
20042;SDS011;10182;52.896;6.496;2023-04-06T11:54:39;29.73;;;22.77;;
20042;SDS011;10182;52.896;6.496;2023-04-06T11:59:43;28.63;;;21.97;;
20042;SDS011;10182;52.896;6.496;2023-04-06T12:04:45;29.17;;;22.47;;
20042;SDS011;10182;52.896;6.496;2023-04-06T12:09:47;31.47;;;22.83;;
20042;SDS011;10182;52.896;6.496;2023-04-06T12:14:50;27.87;;;21.33;;
20042;SDS011;10182;52.896;6.496;2023-04-06T12:19:52;27.67;;;22.17;;
20042;SDS011;10182;52.896;6.496;2023-04-06T12:24:54;27.90;;;21.57;;
20042;SDS011;10182;52.896;6.496;2023-04-06T12:29:57;26.60;;;21.83;;
20042;SDS011;10182;52.896;6.496;2023-04-06T12:34:59;26.10;;;20.73;;
20042;SDS011;10182;52.896;6.496;2023-04-06T12:40:01;28.13;;;22.40;;
20042;SDS011;10182;52.896;6.496;2023-04-06T12:45:05;26.47;;;20.17;;
20042;SDS011;10182;52.896;6.496;2023-04-06T12:50:08;26.17;;;22.13;;
20042;SDS011;10182;52.896;6.496;2023-04-06T12:55:10;27.47;;;20.73;;
20042;SDS011;10182;52.896;6.496;2023-04-06T13:00:14;23.07;;;17.93;;
20042;SDS011;10182;52.896;6.496;2023-04-06T13:05:16;21.50;;;15.90;;
20042;SDS011;10182;52.896;6.496;2023-04-06T13:10:18;22.83;;;18.13;;
20042;SDS011;10182;52.896;6.496;2023-04-06T13:15:21;26.13;;;18.53;;
20042;SDS011;10182;52.896;6.496;2023-04-06T13:20:24;21.87;;;17.53;;
20042;SDS011;10182;52.896;6.496;2023-04-06T13:25:26;21.83;;;16.57;;
20042;SDS011;10182;52.896;6.496;2023-04-06T13:30:30;21.20;;;17.40;;
20042;SDS011;10182;52.896;6.496;2023-04-06T13:35:32;19.90;;;16.63;;
20042;SDS011;10182;52.896;6.496;2023-04-06T13:40:38;21.93;;;16.30;;
20042;SDS011;10182;52.896;6.496;2023-04-06T13:45:41;17.50;;;14.07;;
20042;SDS011;10182;52.896;6.496;2023-04-06T13:50:50;17.10;;;13.17;;
20042;SDS011;10182;52.896;6.496;2023-04-06T13:55:52;15.27;;;12.40;;
20042;SDS011;10182;52.896;6.496;2023-04-06T14:00:56;18.07;;;13.80;;
20042;SDS011;10182;52.896;6.496;2023-04-06T14:06:09;16.53;;;12.53;;
20042;SDS011;10182;52.896;6.496;2023-04-06T14:11:11;16.20;;;13.10;;
20042;SDS011;10182;52.896;6.496;2023-04-06T14:16:15;16.67;;;13.17;;
20042;SDS011;10182;52.896;6.496;2023-04-06T14:21:19;18.23;;;13.80;;
20042;SDS011;10182;52.896;6.496;2023-04-06T14:26:21;17.50;;;12.60;;
20042;SDS011;10182;52.896;6.496;2023-04-06T14:31:24;17.97;;;13.53;;
20042;SDS011;10182;52.896;6.496;2023-04-06T14:36:26;17.30;;;13.63;;
20042;SDS011;10182;52.896;6.496;2023-04-06T14:41:29;15.50;;;13.37;;
20042;SDS011;10182;52.896;6.496;2023-04-06T14:46:32;20.73;;;14.10;;
20042;SDS011;10182;52.896;6.496;2023-04-06T14:51:34;18.73;;;13.93;;
20042;SDS011;10182;52.896;6.496;2023-04-06T14:56:36;16.03;;;12.77;;
20042;SDS011;10182;52.896;6.496;2023-04-06T15:01:40;16.93;;;13.47;;
20042;SDS011;10182;52.896;6.496;2023-04-06T15:06:41;16.80;;;14.00;;
20042;SDS011;10182;52.896;6.496;2023-04-06T15:11:43;17.60;;;13.87;;
20042;SDS011;10182;52.896;6.496;2023-04-06T15:16:46;16.43;;;13.13;;
20042;SDS011;10182;52.896;6.496;2023-04-06T15:21:48;16.80;;;12.40;;
20042;SDS011;10182;52.896;6.496;2023-04-06T15:26:50;16.77;;;13.57;;
20042;SDS011;10182;52.896;6.496;2023-04-06T15:31:53;20.30;;;16.23;;
20042;SDS011;10182;52.896;6.496;2023-04-06T15:36:55;19.83;;;15.70;;
20042;SDS011;10182;52.896;6.496;2023-04-06T15:41:58;25.60;;;20.43;;
20042;SDS011;10182;52.896;6.496;2023-04-06T15:47:02;25.40;;;20.17;;
20042;SDS011;10182;52.896;6.496;2023-04-06T15:52:04;23.53;;;19.47;;
20042;SDS011;10182;52.896;6.496;2023-04-06T15:57:06;27.23;;;21.43;;
20042;SDS011;10182;52.896;6.496;2023-04-06T16:02:09;30.33;;;24.40;;
20042;SDS011;10182;52.896;6.496;2023-04-06T16:07:11;25.77;;;21.90;;
20042;SDS011;10182;52.896;6.496;2023-04-06T16:12:12;28.00;;;21.47;;
20042;SDS011;10182;52.896;6.496;2023-04-06T16:17:15;27.40;;;20.60;;
20042;SDS011;10182;52.896;6.496;2023-04-06T16:22:17;24.53;;;18.93;;
20042;SDS011;10182;52.896;6.496;2023-04-06T16:27:19;23.50;;;16.53;;
20042;SDS011;10182;52.896;6.496;2023-04-06T16:32:22;19.00;;;14.70;;
20042;SDS011;10182;52.896;6.496;2023-04-06T16:37:25;16.90;;;13.97;;
20042;SDS011;10182;52.896;6.496;2023-04-06T16:42:28;17.77;;;13.23;;
20042;SDS011;10182;52.896;6.496;2023-04-06T16:47:31;18.17;;;12.97;;
20042;SDS011;10182;52.896;6.496;2023-04-06T16:52:33;14.23;;;12.00;;
20042;SDS011;10182;52.896;6.496;2023-04-06T16:57:36;15.53;;;12.83;;
20042;SDS011;10182;52.896;6.496;2023-04-06T17:02:39;15.17;;;12.70;;
20042;SDS011;10182;52.896;6.496;2023-04-06T17:07:41;16.80;;;12.20;;
20042;SDS011;10182;52.896;6.496;2023-04-06T17:12:43;14.20;;;12.20;;
20042;SDS011;10182;52.896;6.496;2023-04-06T17:17:46;14.47;;;11.47;;
20042;SDS011;10182;52.896;6.496;2023-04-06T17:22:49;15.37;;;12.27;;
20042;SDS011;10182;52.896;6.496;2023-04-06T17:27:50;14.50;;;12.00;;
20042;SDS011;10182;52.896;6.496;2023-04-06T17:32:53;16.37;;;12.70;;
20042;SDS011;10182;52.896;6.496;2023-04-06T17:37:56;17.67;;;14.10;;
20042;SDS011;10182;52.896;6.496;2023-04-06T17:42:57;16.50;;;12.40;;
20042;SDS011;10182;52.896;6.496;2023-04-06T17:48:00;18.00;;;13.60;;
20042;SDS011;10182;52.896;6.496;2023-04-06T17:53:02;16.67;;;13.70;;
20042;SDS011;10182;52.896;6.496;2023-04-06T17:58:04;18.13;;;13.37;;
20042;SDS011;10182;52.896;6.496;2023-04-06T18:03:07;13.70;;;11.13;;
20042;SDS011;10182;52.896;6.496;2023-04-06T18:08:09;13.07;;;11.43;;
20042;SDS011;10182;52.896;6.496;2023-04-06T18:13:11;17.00;;;12.57;;
20042;SDS011;10182;52.896;6.496;2023-04-06T18:18:14;13.90;;;11.93;;
20042;SDS011;10182;52.896;6.496;2023-04-06T18:23:16;15.47;;;13.13;;
20042;SDS011;10182;52.896;6.496;2023-04-06T18:28:18;15.57;;;12.10;;
20042;SDS011;10182;52.896;6.496;2023-04-06T18:33:21;17.10;;;14.23;;
20042;SDS011;10182;52.896;6.496;2023-04-06T18:38:23;18.50;;;13.93;;
20042;SDS011;10182;52.896;6.496;2023-04-06T18:43:24;17.53;;;14.07;;
20042;SDS011;10182;52.896;6.496;2023-04-06T18:48:28;19.87;;;15.60;;
20042;SDS011;10182;52.896;6.496;2023-04-06T18:53:30;19.27;;;15.80;;
20042;SDS011;10182;52.896;6.496;2023-04-06T18:58:32;17.93;;;15.77;;
20042;SDS011;10182;52.896;6.496;2023-04-06T19:03:35;21.30;;;17.00;;
20042;SDS011;10182;52.896;6.496;2023-04-06T19:08:37;21.70;;;18.10;;
20042;SDS011;10182;52.896;6.496;2023-04-06T19:13:40;20.23;;;16.87;;
20042;SDS011;10182;52.896;6.496;2023-04-06T19:18:46;22.87;;;19.30;;
20042;SDS011;10182;52.896;6.496;2023-04-06T19:23:51;25.43;;;19.43;;
20042;SDS011;10182;52.896;6.496;2023-04-06T19:28:54;25.90;;;20.00;;
20042;SDS011;10182;52.896;6.496;2023-04-06T19:33:57;25.17;;;20.47;;
20042;SDS011;10182;52.896;6.496;2023-04-06T19:38:59;28.33;;;22.13;;
20042;SDS011;10182;52.896;6.496;2023-04-06T19:44:00;25.23;;;21.63;;
20042;SDS011;10182;52.896;6.496;2023-04-06T19:49:03;25.07;;;21.50;;
20042;SDS011;10182;52.896;6.496;2023-04-06T19:54:05;26.47;;;22.10;;
20042;SDS011;10182;52.896;6.496;2023-04-06T19:59:07;26.03;;;22.07;;
20042;SDS011;10182;52.896;6.496;2023-04-06T20:04:11;25.53;;;20.53;;
20042;SDS011;10182;52.896;6.496;2023-04-06T20:09:13;22.50;;;20.10;;
20042;SDS011;10182;52.896;6.496;2023-04-06T20:14:17;28.60;;;22.53;;
20042;SDS011;10182;52.896;6.496;2023-04-06T20:19:20;28.90;;;23.57;;
20042;SDS011;10182;52.896;6.496;2023-04-06T20:24:21;27.37;;;21.97;;
20042;SDS011;10182;52.896;6.496;2023-04-06T20:29:24;31.00;;;24.30;;
20042;SDS011;10182;52.896;6.496;2023-04-06T20:34:28;28.43;;;23.33;;
20042;SDS011;10182;52.896;6.496;2023-04-06T20:39:30;26.90;;;22.43;;
20042;SDS011;10182;52.896;6.496;2023-04-06T20:44:32;27.43;;;22.53;;
20042;SDS011;10182;52.896;6.496;2023-04-06T20:49:36;34.23;;;26.60;;
20042;SDS011;10182;52.896;6.496;2023-04-06T20:54:37;30.30;;;23.13;;
20042;SDS011;10182;52.896;6.496;2023-04-06T20:59:39;27.87;;;23.27;;
20042;SDS011;10182;52.896;6.496;2023-04-06T21:04:42;26.43;;;21.90;;
20042;SDS011;10182;52.896;6.496;2023-04-06T21:09:44;26.87;;;21.63;;
20042;SDS011;10182;52.896;6.496;2023-04-06T21:14:46;26.13;;;20.80;;
20042;SDS011;10182;52.896;6.496;2023-04-06T21:19:49;27.10;;;21.47;;
20042;SDS011;10182;52.896;6.496;2023-04-06T21:24:51;26.57;;;21.83;;
20042;SDS011;10182;52.896;6.496;2023-04-06T21:29:53;26.67;;;20.90;;
20042;SDS011;10182;52.896;6.496;2023-04-06T21:34:56;23.27;;;19.87;;
20042;SDS011;10182;52.896;6.496;2023-04-06T21:39:58;25.40;;;22.00;;
20042;SDS011;10182;52.896;6.496;2023-04-06T21:45:01;25.40;;;21.00;;
20042;SDS011;10182;52.896;6.496;2023-04-06T21:50:04;26.03;;;21.50;;
20042;SDS011;10182;52.896;6.496;2023-04-06T21:55:07;28.40;;;24.90;;
20042;SDS011;10182;52.896;6.496;2023-04-06T22:00:09;29.20;;;24.30;;
20042;SDS011;10182;52.896;6.496;2023-04-06T22:05:13;27.53;;;22.77;;
20042;SDS011;10182;52.896;6.496;2023-04-06T22:10:15;28.37;;;23.50;;
20042;SDS011;10182;52.896;6.496;2023-04-06T22:15:17;25.90;;;22.53;;
20042;SDS011;10182;52.896;6.496;2023-04-06T22:20:20;24.37;;;21.63;;
20042;SDS011;10182;52.896;6.496;2023-04-06T22:25:21;23.73;;;20.80;;
20042;SDS011;10182;52.896;6.496;2023-04-06T22:30:23;26.60;;;22.17;;
20042;SDS011;10182;52.896;6.496;2023-04-06T22:35:26;23.93;;;20.43;;
20042;SDS011;10182;52.896;6.496;2023-04-06T22:40:28;26.20;;;22.17;;
20042;SDS011;10182;52.896;6.496;2023-04-06T22:45:30;22.73;;;20.17;;
20042;SDS011;10182;52.896;6.496;2023-04-06T22:50:33;26.17;;;20.87;;
20042;SDS011;10182;52.896;6.496;2023-04-06T22:55:34;23.70;;;20.07;;
20042;SDS011;10182;52.896;6.496;2023-04-06T23:00:39;25.93;;;21.27;;
20042;SDS011;10182;52.896;6.496;2023-04-06T23:05:42;24.03;;;20.97;;
20042;SDS011;10182;52.896;6.496;2023-04-06T23:10:44;25.83;;;23.00;;
20042;SDS011;10182;52.896;6.496;2023-04-06T23:15:46;28.67;;;23.53;;
20042;SDS011;10182;52.896;6.496;2023-04-06T23:20:49;28.60;;;23.53;;
20042;SDS011;10182;52.896;6.496;2023-04-06T23:25:51;27.10;;;23.13;;
20042;SDS011;10182;52.896;6.496;2023-04-06T23:30:52;31.03;;;25.57;;
20042;SDS011;10182;52.896;6.496;2023-04-06T23:35:56;28.93;;;25.60;;
20042;SDS011;10182;52.896;6.496;2023-04-06T23:40:58;33.07;;;28.13;;
20042;SDS011;10182;52.896;6.496;2023-04-06T23:45:59;30.43;;;27.07;;
20042;SDS011;10182;52.896;6.496;2023-04-06T23:51:02;33.13;;;28.07;;
20042;SDS011;10182;52.896;6.496;2023-04-06T23:56:04;34.20;;;28.03;;
